Time,TemperatureF,DewpointF,PressureIn,WindDirection,WindDirectionDegrees,WindSpeedMPH,WindSpeedGustMPH,Humidity,HourlyPrecipIn,Conditions,Clouds,dailyrainin,SolarRadiationWatts/m^2,SoftwareType,DateUTC
2013-06-05 00:00:00,65.3,63.8,29.95,NE,48,0.0,0.0,95,0.00,,,1.21,0,Wunderground v.1.15,2013-06-05 05:00:00,
2013-06-05 00:10:00,65.3,63.8,29.94,NE,48,0.0,0.0,95,0.00,,,0.00,0,Wunderground v.1.15,2013-06-05 05:10:00,
2013-06-05 00:20:00,65.3,63.8,29.93,NE,48,0.0,0.0,95,0.00,,,0.00,0,Wunderground v.1.15,2013-06-05 05:20:00,
2013-06-05 00:30:00,65.2,63.7,29.93,NE,48,0.0,0.0,95,0.00,,,0.00,0,Wunderground v.1.15,2013-06-05 05:30:00,
2013-06-05 00:40:00,65.2,63.7,29.93,NE,48,0.0,0.0,95,0.00,,,0.00,0,Wunderground v.1.15,2013-06-05 05:40:00,
2013-06-05 00:50:00,65.0,63.5,29.92,NE,48,0.0,0.0,95,0.00,,,0.00,0,Wunderground v.1.15,2013-06-05 05:50:00,
2013-06-05 01:00:00,65.0,63.5,29.92,NE,48,0.0,0.0,95,0.00,,,0.00,0,Wunderground v.1.15,2013-06-05 06:00:00,
2013-06-05 01:10:00,65.0,63.5,29.93,NE,48,0.0,0.0,95,0.00,,,0.00,0,Wunderground v.1.15,2013-06-05 06:10:00,
2013-06-05 01:20:00,65.0,63.5,29.93,NE,48,0.0,0.0,95,0.00,,,0.00,0,Wunderground v.1.15,2013-06-05 06:20:00,
2013-06-05 01:30:00,65.0,63.5,29.93,NE,48,0.0,0.0,95,0.00,,,0.00,0,Wunderground v.1.15,2013-06-05 06:30:00,
2013-06-05 01:40:00,64.8,63.3,29.93,NE,48,0.0,0.0,95,0.00,,,0.00,0,Wunderground v.1.15,2013-06-05 06:40:00,
2013-06-05 01:50:00,64.7,63.2,29.93,NE,48,0.0,0.0,95,0.00,,,0.00,0,Wunderground v.1.15,2013-06-05 06:50:00,
2013-06-05 02:00:00,64.7,63.2,29.93,NE,48,0.0,0.0,95,0.00,,,0.00,0,Wunderground v.1.15,2013-06-05 07:00:00,
2013-06-05 02:10:00,64.5,63.0,29.95,NE,48,0.0,0.0,95,0.00,,,0.00,0,Wunderground v.1.15,2013-06-05 07:10:00,
2013-06-05 02:19:00,64.5,63.0,29.95,NE,48,0.0,0.0,95,0.00,,,0.00,0,Wunderground v.1.15,2013-06-05 07:19:00,
2013-06-05 02:30:00,64.5,63.0,29.95,NE,48,0.0,0.0,95,0.00,,,0.00,0,Wunderground v.1.15,2013-06-05 07:30:00,
2013-06-05 02:40:00,64.5,63.0,29.95,NE,48,0.0,0.0,95,0.00,,,0.00,0,Wunderground v.1.15,2013-06-05 07:40:00,
2013-06-05 02:50:00,64.5,63.0,29.94,NE,48,0.0,0.0,95,0.00,,,0.00,0,Wunderground v.1.15,2013-06-05 07:50:00,
2013-06-05 03:00:00,64.5,63.0,29.94,NE,48,0.0,0.0,95,0.00,,,0.00,0,Wunderground v.1.15,2013-06-05 08:00:00,
2013-06-05 03:10:00,64.7,63.2,29.95,NNE,26,0.0,0.0,95,0.00,,,0.00,0,Wunderground v.1.15,2013-06-05 08:10:00,
2013-06-05 03:20:00,64.5,63.0,29.95,NNE,26,0.0,0.0,95,0.00,,,0.00,0,Wunderground v.1.15,2013-06-05 08:20:00,
2013-06-05 03:29:00,64.5,63.0,29.95,NNE,26,0.0,0.0,95,0.00,,,0.00,0,Wunderground v.1.15,2013-06-05 08:29:00,
2013-06-05 03:40:00,64.3,62.8,29.96,NNE,24,0.0,0.0,95,0.00,,,0.00,0,Wunderground v.1.15,2013-06-05 08:40:00,
2013-06-05 03:50:00,64.2,62.7,29.95,NNE,24,0.0,0.0,95,0.00,,,0.00,0,Wunderground v.1.15,2013-06-05 08:50:00,
2013-06-05 04:00:00,64.0,62.5,29.95,NNE,24,0.0,0.0,95,0.00,,,0.00,0,Wunderground v.1.15,2013-06-05 09:00:00,
2013-06-05 04:10:00,63.7,62.2,29.95,NNE,24,0.0,0.0,95,0.00,,,0.00,0,Wunderground v.1.15,2013-06-05 09:10:00,
2013-06-05 04:19:00,63.7,62.2,29.95,North,11,0.0,0.0,95,0.00,,,0.00,0,Wunderground v.1.15,2013-06-05 09:19:00,
2013-06-05 04:30:00,63.7,62.2,29.95,NNW,338,0.0,0.0,95,0.00,,,0.00,0,Wunderground v.1.15,2013-06-05 09:30:00,
2013-06-05 04:40:00,63.5,62.0,29.95,North,5,0.0,0.0,95,0.00,,,0.00,0,Wunderground v.1.15,2013-06-05 09:40:00,
2013-06-05 04:50:00,63.5,61.7,29.95,North,5,0.0,0.0,94,0.00,,,0.00,0,Wunderground v.1.15,2013-06-05 09:50:00,
2013-06-05 05:00:00,63.4,61.6,29.95,North,10,2.0,2.0,94,0.00,,,0.00,0,Wunderground v.1.15,2013-06-05 10:00:00,
2013-06-05 05:10:00,63.2,61.4,29.94,North,10,0.0,0.0,94,0.00,,,0.00,0,Wunderground v.1.15,2013-06-05 10:10:00,
2013-06-05 05:20:00,63.1,61.0,29.93,NNE,15,0.0,0.0,93,0.00,,,0.00,0,Wunderground v.1.15,2013-06-05 10:20:00,
2013-06-05 05:30:00,63.1,61.0,29.93,North,11,0.0,0.0,93,0.00,,,0.00,0,Wunderground v.1.15,2013-06-05 10:30:00,
2013-06-05 05:40:00,62.7,60.3,29.93,NNW,328,1.0,4.0,92,0.00,,,0.00,0,Wunderground v.1.15,2013-06-05 10:40:00,
2013-06-05 05:50:00,62.4,59.7,29.93,NNE,17,4.0,7.0,91,0.00,,,0.00,0,Wunderground v.1.15,2013-06-05 10:50:00,
2013-06-05 06:00:00,62.3,59.6,29.93,NNE,17,5.0,5.0,91,0.00,,,0.00,0,Wunderground v.1.15,2013-06-05 11:00:00,
2013-06-05 06:10:00,62.1,59.4,29.92,NNE,13,2.0,2.0,91,0.00,,,0.00,0,Wunderground v.1.15,2013-06-05 11:10:00,
2013-06-05 06:20:00,62.0,59.3,29.94,North,5,1.0,4.0,91,0.00,,,0.01,0,Wunderground v.1.15,2013-06-05 11:20:00,
2013-06-05 06:30:00,62.1,59.4,29.94,West,277,1.0,5.0,91,0.00,,,0.01,0,Wunderground v.1.15,2013-06-05 11:30:00,
2013-06-05 06:40:00,61.2,58.2,29.97,NW,316,1.0,1.0,90,0.00,,,0.01,0,Wunderground v.1.15,2013-06-05 11:40:00,
2013-06-05 06:50:00,60.5,57.6,30.00,WNW,295,1.0,1.0,90,0.00,,,0.01,0,Wunderground v.1.15,2013-06-05 11:50:00,
2013-06-05 07:00:00,59.3,55.4,30.00,NW,314,4.0,4.0,87,0.00,,,0.02,7,Wunderground v.1.15,2013-06-05 12:00:00,
2013-06-05 07:10:00,58.4,53.6,30.01,WNW,302,3.0,3.0,84,0.00,,,0.02,12,Wunderground v.1.15,2013-06-05 12:10:00,
2013-06-05 07:20:00,58.3,53.2,30.00,NW,305,2.0,2.0,83,0.00,,,0.02,19,Wunderground v.1.15,2013-06-05 12:20:00,
2013-06-05 07:30:00,58.0,52.5,30.00,North,355,2.0,2.0,82,0.00,,,0.03,63,Wunderground v.1.15,2013-06-05 12:30:00,
2013-06-05 07:40:00,57.8,52.0,29.99,NNE,13,2.0,2.0,81,0.00,,,0.03,69,Wunderground v.1.15,2013-06-05 12:40:00,
2013-06-05 07:49:00,58.0,51.9,29.97,North,360,4.0,4.0,80,0.00,,,0.03,77,Wunderground v.1.15,2013-06-05 12:49:00,
2013-06-05 08:00:00,58.1,50.6,29.97,North,360,3.0,3.0,76,0.00,,,0.03,125,Wunderground v.1.15,2013-06-05 13:00:00,
2013-06-05 08:09:00,58.4,51.2,29.99,North,11,1.0,4.0,77,0.00,,,0.03,153,Wunderground v.1.15,2013-06-05 13:09:00,
2013-06-05 08:20:00,58.7,51.2,29.99,NNW,341,1.0,1.0,76,0.00,,,0.03,172,Wunderground v.1.15,2013-06-05 13:20:00,
2013-06-05 08:30:00,59.0,50.7,29.99,NNW,338,1.0,3.0,74,0.00,,,0.03,171,Wunderground v.1.15,2013-06-05 13:30:00,
2013-06-05 08:40:00,59.2,51.3,29.99,NNE,12,2.0,2.0,75,0.00,,,0.03,121,Wunderground v.1.15,2013-06-05 13:40:00,
2013-06-05 08:50:00,59.2,50.2,29.99,NNW,327,1.0,2.0,72,0.00,,,0.03,116,Wunderground v.1.15,2013-06-05 13:50:00,
2013-06-05 09:00:00,59.2,50.5,29.99,North,5,1.0,1.0,73,0.00,,,0.03,144,Wunderground v.1.15,2013-06-05 14:00:00,
2013-06-05 09:10:00,59.3,50.3,29.98,NNW,344,3.0,3.0,72,0.00,,,0.03,195,Wunderground v.1.15,2013-06-05 14:10:00,
2013-06-05 09:20:00,59.8,50.0,29.99,NNE,23,1.0,1.0,70,0.00,,,0.03,216,Wunderground v.1.15,2013-06-05 14:20:00,
2013-06-05 09:30:00,60.1,49.5,29.99,NE,45,1.0,1.0,68,0.00,,,0.03,241,Wunderground v.1.15,2013-06-05 14:30:00,
2013-06-05 09:40:00,60.5,49.9,29.99,NNW,328,2.0,2.0,68,0.00,,,0.03,353,Wunderground v.1.15,2013-06-05 14:40:00,
2013-06-05 09:50:00,60.9,49.9,29.99,NNW,334,3.0,3.0,67,0.00,,,0.03,292,Wunderground v.1.15,2013-06-05 14:50:00,
2013-06-05 10:00:00,61.0,49.6,29.99,North,11,4.0,4.0,66,0.00,,,0.03,297,Wunderground v.1.15,2013-06-05 15:00:00,
2013-06-05 10:10:00,61.6,50.5,30.00,NNE,20,2.0,2.0,67,0.00,,,0.03,429,Wunderground v.1.15,2013-06-05 15:10:00,
2013-06-05 10:20:00,62.3,50.0,30.00,NNE,15,3.0,5.0,64,0.00,,,0.03,496,Wunderground v.1.15,2013-06-05 15:20:00,
2013-06-05 10:30:00,62.9,50.1,30.00,North,355,5.0,5.0,63,0.00,,,0.03,494,Wunderground v.1.15,2013-06-05 15:30:00,
2013-06-05 10:40:00,63.4,50.6,30.01,North,9,4.0,5.0,63,0.00,,,0.03,540,Wunderground v.1.15,2013-06-05 15:40:00,
2013-06-05 10:50:00,64.0,51.1,30.00,North,355,5.0,6.0,63,0.00,,,0.03,745,Wunderground v.1.15,2013-06-05 15:50:00,
2013-06-05 11:00:00,64.2,50.9,30.00,NNE,24,4.0,5.0,62,0.00,,,0.03,791,Wunderground v.1.15,2013-06-05 16:00:00,
2013-06-05 11:10:00,64.8,50.1,30.00,North,351,5.0,5.0,59,0.00,,,0.03,828,Wunderground v.1.15,2013-06-05 16:10:00,
2013-06-05 11:20:00,65.5,51.7,30.00,North,9,2.0,2.0,61,0.00,,,0.03,809,Wunderground v.1.15,2013-06-05 16:20:00,
2013-06-05 11:30:00,65.5,50.3,30.00,North,355,5.0,5.0,58,0.00,,,0.03,812,Wunderground v.1.15,2013-06-05 16:30:00,
2013-06-05 11:40:00,66.0,51.7,30.00,NNE,28,5.0,6.0,60,0.00,,,0.03,956,Wunderground v.1.15,2013-06-05 16:40:00,
2013-06-05 11:50:00,66.1,51.4,30.00,NNE,19,4.0,5.0,59,0.00,,,0.03,471,Wunderground v.1.15,2013-06-05 16:50:00,
2013-06-05 12:00:00,65.5,51.7,30.00,NNE,32,6.0,10.0,61,0.00,,,0.03,480,Wunderground v.1.15,2013-06-05 17:00:00,
2013-06-05 12:09:00,66.3,52.9,30.00,North,355,7.0,7.0,62,0.00,,,0.03,1046,Wunderground v.1.15,2013-06-05 17:09:00,
2013-06-05 12:19:00,66.1,52.3,30.00,NNE,19,4.0,10.0,61,0.00,,,0.03,508,Wunderground v.1.15,2013-06-05 17:19:00,
2013-06-05 12:30:00,66.4,51.6,30.00,NNE,20,4.0,8.0,59,0.00,,,0.03,501,Wunderground v.1.15,2013-06-05 17:30:00,
2013-06-05 12:40:00,66.6,50.4,30.00,North,360,3.0,3.0,56,0.00,,,0.03,408,Wunderground v.1.15,2013-06-05 17:40:00,
2013-06-05 12:50:00,66.4,51.2,30.00,NNW,346,2.0,2.0,58,0.00,,,0.03,390,Wunderground v.1.15,2013-06-05 17:50:00,
2013-06-05 13:00:00,66.8,52.0,30.00,NNW,347,0.0,0.0,59,0.00,,,0.03,1009,Wunderground v.1.15,2013-06-05 18:00:00,
2013-06-05 13:10:00,68.3,52.9,29.99,NNE,17,2.0,7.0,58,0.00,,,0.03,768,Wunderground v.1.15,2013-06-05 18:10:00,
2013-06-05 13:20:00,67.9,51.1,29.99,NW,311,3.0,3.0,55,0.00,,,0.03,752,Wunderground v.1.15,2013-06-05 18:20:00,
2013-06-05 13:29:00,67.9,51.6,29.99,NNW,338,2.0,2.0,56,0.00,,,0.03,506,Wunderground v.1.15,2013-06-05 18:29:00,
2013-06-05 13:40:00,67.8,51.5,29.99,North,350,2.0,2.0,56,0.00,,,0.03,490,Wunderground v.1.15,2013-06-05 18:40:00,
2013-06-05 13:50:00,67.8,52.9,29.98,NNW,342,0.0,0.0,59,0.00,,,0.03,636,Wunderground v.1.15,2013-06-05 18:50:00,
2013-06-05 14:00:00,68.4,52.6,29.98,NNE,15,4.0,4.0,57,0.00,,,0.03,933,Wunderground v.1.15,2013-06-05 19:00:00,
2013-06-05 14:10:00,68.1,51.3,29.98,NNW,345,4.0,6.0,55,0.00,,,0.03,438,Wunderground v.1.15,2013-06-05 19:10:00,
2013-06-05 14:20:00,67.8,51.5,29.97,NW,317,2.0,2.0,56,0.00,,,0.03,399,Wunderground v.1.15,2013-06-05 19:20:00,
2013-06-05 14:30:00,67.8,50.5,29.97,NNW,329,1.0,1.0,54,0.00,,,0.03,434,Wunderground v.1.15,2013-06-05 19:30:00,
2013-06-05 14:39:00,68.1,51.3,29.97,NNE,30,2.0,2.0,55,0.00,,,0.03,650,Wunderground v.1.15,2013-06-05 19:39:00,
2013-06-05 14:50:00,67.9,52.6,29.96,NNE,24,3.0,3.0,58,0.00,,,0.03,403,Wunderground v.1.15,2013-06-05 19:50:00,
2013-06-05 14:59:00,67.6,51.8,29.96,NE,44,1.0,1.0,57,0.00,,,0.03,394,Wunderground v.1.15,2013-06-05 19:59:00,
2013-06-05 15:09:00,67.8,52.0,29.96,NNE,22,0.0,0.0,57,0.00,,,0.03,308,Wunderground v.1.15,2013-06-05 20:09:00,
2013-06-05 15:20:00,67.8,51.5,29.95,NE,36,0.0,0.0,56,0.00,,,0.03,269,Wunderground v.1.15,2013-06-05 20:20:00,
2013-06-05 15:30:00,67.8,52.5,29.95,ESE,102,1.0,1.0,58,0.00,,,0.03,673,Wunderground v.1.15,2013-06-05 20:30:00,
2013-06-05 15:40:00,69.1,53.2,29.94,NE,49,1.0,1.0,57,0.00,,,0.03,951,Wunderground v.1.15,2013-06-05 20:40:00,
2013-06-05 15:50:00,69.9,52.5,29.94,SSE,161,1.0,1.0,54,0.00,,,0.03,879,Wunderground v.1.15,2013-06-05 20:50:00,
2013-06-05 15:59:00,70.1,54.6,29.94,East,82,0.0,0.0,58,0.00,,,0.03,403,Wunderground v.1.15,2013-06-05 20:59:00,
2013-06-05 16:09:00,70.9,53.4,29.94,ESE,114,0.0,0.0,54,0.00,,,0.03,779,Wunderground v.1.15,2013-06-05 21:09:00,
2013-06-05 16:20:00,71.1,53.6,29.93,East,80,2.0,2.0,54,0.00,,,0.03,171,Wunderground v.1.15,2013-06-05 21:20:00,
2013-06-05 16:30:00,69.9,53.0,29.93,ENE,68,1.0,1.0,55,0.00,,,0.03,218,Wunderground v.1.15,2013-06-05 21:30:00,
2013-06-05 16:40:00,70.4,52.4,29.94,ENE,69,0.0,0.0,53,0.00,,,0.03,752,Wunderground v.1.15,2013-06-05 21:40:00,
2013-06-05 16:50:00,71.6,52.0,29.92,SW,227,0.0,0.0,50,0.00,,,0.03,645,Wunderground v.1.15,2013-06-05 21:50:00,
2013-06-05 17:00:00,72.3,54.7,29.92,ENE,64,0.0,3.0,54,0.00,,,0.03,652,Wunderground v.1.15,2013-06-05 22:00:00,
2013-06-05 17:10:00,72.3,53.2,29.92,ENE,75,2.0,2.0,51,0.00,,,0.03,613,Wunderground v.1.15,2013-06-05 22:10:00,
2013-06-05 17:20:00,72.8,53.6,29.92,ENE,75,0.0,0.0,51,0.00,,,0.03,313,Wunderground v.1.15,2013-06-05 22:20:00,
2013-06-05 17:30:00,73.5,52.6,29.92,WNW,301,0.0,4.0,48,0.00,,,0.03,584,Wunderground v.1.15,2013-06-05 22:30:00,
2013-06-05 17:40:00,74.0,50.7,29.92,WNW,288,2.0,2.0,44,0.00,,,0.03,172,Wunderground v.1.15,2013-06-05 22:40:00,
2013-06-05 17:50:00,74.2,50.3,29.92,NW,323,3.0,5.0,43,0.00,,,0.03,464,Wunderground v.1.15,2013-06-05 22:50:00,
2013-06-05 18:00:00,73.7,51.0,29.92,North,5,0.0,1.0,45,0.00,,,0.03,360,Wunderground v.1.15,2013-06-05 23:00:00,
2013-06-05 18:10:00,72.3,50.9,29.92,NNW,331,3.0,4.0,47,0.00,,,0.03,104,Wunderground v.1.15,2013-06-05 23:10:00,
2013-06-05 18:19:00,71.1,50.4,29.92,NNW,332,1.0,1.0,48,0.00,,,0.03,107,Wunderground v.1.15,2013-06-05 23:19:00,
2013-06-05 18:30:00,71.5,51.3,29.92,NW,323,1.0,2.0,49,0.00,,,0.03,432,Wunderground v.1.15,2013-06-05 23:30:00,
2013-06-05 18:39:00,71.3,50.0,29.92,NW,306,2.0,2.0,47,0.00,,,0.03,90,Wunderground v.1.15,2013-06-05 23:39:00,
2013-06-05 18:50:00,70.3,50.2,29.93,NNW,344,1.0,1.0,49,0.00,,,0.03,127,Wunderground v.1.15,2013-06-05 23:50:00,
2013-06-05 18:59:00,69.8,50.9,29.93,NNW,340,1.0,3.0,51,0.00,,,0.03,98,Wunderground v.1.15,2013-06-05 23:59:00,
2013-06-05 19:10:00,69.4,49.9,29.93,NNW,327,1.0,2.0,50,0.00,,,0.03,109,Wunderground v.1.15,2013-06-06 00:10:00,
2013-06-05 19:20:00,70.1,50.0,29.93,North,355,2.0,2.0,49,0.00,,,0.03,283,Wunderground v.1.15,2013-06-06 00:20:00,
2013-06-05 19:30:00,70.4,49.8,29.93,NNW,333,2.0,2.0,48,0.00,,,0.03,188,Wunderground v.1.15,2013-06-06 00:30:00,
2013-06-05 19:40:00,70.4,50.3,29.93,NNE,18,1.0,1.0,49,0.00,,,0.03,148,Wunderground v.1.15,2013-06-06 00:40:00,
2013-06-05 19:50:00,69.8,48.7,29.93,North,355,2.0,2.0,47,0.00,,,0.03,116,Wunderground v.1.15,2013-06-06 00:50:00,
2013-06-05 20:00:00,69.3,50.4,29.93,NNW,327,2.0,2.0,51,0.00,,,0.03,90,Wunderground v.1.15,2013-06-06 01:00:00,
2013-06-05 20:10:00,68.6,50.3,29.94,North,10,2.0,3.0,52,0.00,,,0.03,62,Wunderground v.1.15,2013-06-06 01:10:00,
2013-06-05 20:19:00,67.8,50.0,29.94,NNW,333,1.0,1.0,53,0.00,,,0.03,21,Wunderground v.1.15,2013-06-06 01:19:00,
2013-06-05 20:30:00,66.9,48.7,29.94,North,5,1.0,5.0,52,0.00,,,0.03,16,Wunderground v.1.15,2013-06-06 01:30:00,
2013-06-05 20:40:00,66.4,48.7,29.95,NNW,336,1.0,1.0,53,0.00,,,0.03,11,Wunderground v.1.15,2013-06-06 01:40:00,
2013-06-05 20:50:00,65.6,49.5,29.95,NW,322,0.0,0.0,56,0.00,,,0.03,5,Wunderground v.1.15,2013-06-06 01:50:00,
2013-06-05 21:00:00,65.0,49.4,29.95,NW,322,0.0,0.0,57,0.00,,,0.03,0,Wunderground v.1.15,2013-06-06 02:00:00,
2013-06-05 21:10:00,64.3,49.2,29.95,NW,322,0.0,0.0,58,0.00,,,0.03,0,Wunderground v.1.15,2013-06-06 02:10:00,
2013-06-05 21:20:00,63.7,49.5,29.95,NW,322,0.0,0.0,60,0.00,,,0.03,0,Wunderground v.1.15,2013-06-06 02:20:00,
2013-06-05 21:29:00,62.7,49.5,29.95,NW,322,0.0,0.0,62,0.00,,,0.03,0,Wunderground v.1.15,2013-06-06 02:29:00,
2013-06-05 21:40:00,61.6,50.1,29.96,NW,322,0.0,0.0,66,0.00,,,0.03,0,Wunderground v.1.15,2013-06-06 02:40:00,
2013-06-05 21:50:00,61.0,50.4,29.97,NW,322,0.0,0.0,68,0.00,,,0.03,0,Wunderground v.1.15,2013-06-06 02:50:00,
2013-06-05 22:00:00,60.4,49.8,29.97,NW,322,0.0,0.0,68,0.00,,,0.03,0,Wunderground v.1.15,2013-06-06 03:00:00,
2013-06-05 22:10:00,59.8,50.4,29.97,NW,322,0.0,0.0,71,0.00,,,0.03,0,Wunderground v.1.15,2013-06-06 03:10:00,
2013-06-05 22:20:00,59.0,50.0,29.98,NW,322,0.0,0.0,72,0.00,,,0.03,0,Wunderground v.1.15,2013-06-06 03:20:00,
2013-06-05 22:30:00,58.0,50.5,29.98,NW,322,0.0,0.0,76,0.00,,,0.03,0,Wunderground v.1.15,2013-06-06 03:30:00,
2013-06-05 22:40:00,57.2,50.7,29.98,NW,322,0.0,0.0,79,0.00,,,0.03,0,Wunderground v.1.15,2013-06-06 03:40:00,
2013-06-05 22:49:00,56.7,50.9,29.98,NW,322,0.0,0.0,81,0.00,,,0.03,0,Wunderground v.1.15,2013-06-06 03:49:00,
2013-06-05 22:59:00,56.3,50.2,29.98,NW,322,0.0,0.0,80,0.00,,,0.03,0,Wunderground v.1.15,2013-06-06 03:59:00,
2013-06-05 23:09:00,56.2,50.4,29.98,NW,322,0.0,0.0,81,0.00,,,0.03,0,Wunderground v.1.15,2013-06-06 04:09:00,
2013-06-05 23:20:00,55.9,50.8,29.98,NW,322,0.0,0.0,83,0.00,,,0.03,0,Wunderground v.1.15,2013-06-06 04:20:00,
2013-06-05 23:30:00,55.4,50.6,29.98,NW,322,0.0,0.0,84,0.00,,,0.03,0,Wunderground v.1.15,2013-06-06 04:30:00,
2013-06-05 23:40:00,55.1,50.4,29.98,NW,322,0.0,0.0,84,0.00,,,0.03,0,Wunderground v.1.15,2013-06-06 04:40:00,
2013-06-05 23:50:00,54.8,50.1,29.98,NW,322,0.0,0.0,84,0.00,,,0.03,0,Wunderground v.1.15,2013-06-06 04:50:00,